sensor_id;sensor_type;location;lat;lon;timestamp;P1;durP1;ratioP1;P2;durP2;ratioP2
7683;SDS011;3884;48.616;12.872;2023-12-07T00:01:05;22.13;;;17.27;;
7683;SDS011;3884;48.616;12.872;2023-12-07T00:03:32;22.80;;;18.20;;
7683;SDS011;3884;48.616;12.872;2023-12-07T00:05:59;23.40;;;17.20;;
7683;SDS011;3884;48.616;12.872;2023-12-07T00:08:25;23.97;;;17.67;;
7683;SDS011;3884;48.616;12.872;2023-12-07T00:10:52;24.67;;;18.87;;
7683;SDS011;3884;48.616;12.872;2023-12-07T00:13:20;26.87;;;19.57;;
7683;SDS011;3884;48.616;12.872;2023-12-07T00:15:47;22.70;;;17.87;;
7683;SDS011;3884;48.616;12.872;2023-12-07T00:18:14;24.50;;;18.20;;
7683;SDS011;3884;48.616;12.872;2023-12-07T00:20:41;22.77;;;18.13;;
7683;SDS011;3884;48.616;12.872;2023-12-07T00:23:08;24.57;;;19.07;;
7683;SDS011;3884;48.616;12.872;2023-12-07T00:25:34;23.93;;;18.30;;
7683;SDS011;3884;48.616;12.872;2023-12-07T00:28:01;25.33;;;19.17;;
7683;SDS011;3884;48.616;12.872;2023-12-07T00:30:30;23.27;;;18.70;;
7683;SDS011;3884;48.616;12.872;2023-12-07T00:32:57;22.73;;;17.73;;
7683;SDS011;3884;48.616;12.872;2023-12-07T00:35:24;22.67;;;17.73;;
7683;SDS011;3884;48.616;12.872;2023-12-07T00:37:54;24.47;;;17.90;;
7683;SDS011;3884;48.616;12.872;2023-12-07T00:40:22;25.17;;;18.60;;
7683;SDS011;3884;48.616;12.872;2023-12-07T00:42:49;22.20;;;17.30;;
7683;SDS011;3884;48.616;12.872;2023-12-07T00:45:16;22.40;;;17.27;;
7683;SDS011;3884;48.616;12.872;2023-12-07T00:47:44;21.80;;;17.50;;
7683;SDS011;3884;48.616;12.872;2023-12-07T00:50:11;23.97;;;17.83;;
7683;SDS011;3884;48.616;12.872;2023-12-07T00:52:40;24.17;;;18.63;;
7683;SDS011;3884;48.616;12.872;2023-12-07T00:55:07;25.27;;;19.23;;
7683;SDS011;3884;48.616;12.872;2023-12-07T00:57:34;25.07;;;18.60;;
7683;SDS011;3884;48.616;12.872;2023-12-07T01:00:01;25.67;;;19.47;;
7683;SDS011;3884;48.616;12.872;2023-12-07T01:02:28;23.10;;;17.80;;
7683;SDS011;3884;48.616;12.872;2023-12-07T01:04:56;24.40;;;19.10;;
7683;SDS011;3884;48.616;12.872;2023-12-07T01:07:23;25.27;;;18.43;;
7683;SDS011;3884;48.616;12.872;2023-12-07T01:09:50;23.47;;;18.50;;
7683;SDS011;3884;48.616;12.872;2023-12-07T01:12:17;24.10;;;18.87;;
7683;SDS011;3884;48.616;12.872;2023-12-07T01:14:45;26.77;;;18.53;;
7683;SDS011;3884;48.616;12.872;2023-12-07T01:17:12;25.33;;;18.57;;
7683;SDS011;3884;48.616;12.872;2023-12-07T01:19:39;24.70;;;18.17;;
7683;SDS011;3884;48.616;12.872;2023-12-07T01:22:07;23.93;;;19.57;;
7683;SDS011;3884;48.616;12.872;2023-12-07T01:24:34;24.63;;;18.63;;
7683;SDS011;3884;48.616;12.872;2023-12-07T01:27:01;23.63;;;18.53;;
7683;SDS011;3884;48.616;12.872;2023-12-07T01:29:27;24.17;;;19.10;;
7683;SDS011;3884;48.616;12.872;2023-12-07T01:31:54;24.60;;;18.67;;
7683;SDS011;3884;48.616;12.872;2023-12-07T01:34:21;21.57;;;16.57;;
7683;SDS011;3884;48.616;12.872;2023-12-07T01:36:48;22.37;;;17.33;;
7683;SDS011;3884;48.616;12.872;2023-12-07T01:39:15;24.63;;;17.77;;
7683;SDS011;3884;48.616;12.872;2023-12-07T01:41:42;25.40;;;19.47;;
7683;SDS011;3884;48.616;12.872;2023-12-07T01:44:09;25.17;;;19.50;;
7683;SDS011;3884;48.616;12.872;2023-12-07T01:46:35;24.00;;;18.83;;
7683;SDS011;3884;48.616;12.872;2023-12-07T01:49:03;24.73;;;18.20;;
7683;SDS011;3884;48.616;12.872;2023-12-07T01:51:30;24.07;;;18.33;;
7683;SDS011;3884;48.616;12.872;2023-12-07T01:53:57;24.43;;;18.90;;
7683;SDS011;3884;48.616;12.872;2023-12-07T01:56:25;24.43;;;18.90;;
7683;SDS011;3884;48.616;12.872;2023-12-07T01:58:53;25.53;;;19.57;;
7683;SDS011;3884;48.616;12.872;2023-12-07T02:01:20;21.03;;;17.27;;
7683;SDS011;3884;48.616;12.872;2023-12-07T02:03:47;21.13;;;17.57;;
7683;SDS011;3884;48.616;12.872;2023-12-07T02:06:14;24.30;;;18.10;;
7683;SDS011;3884;48.616;12.872;2023-12-07T02:08:43;26.17;;;18.90;;
7683;SDS011;3884;48.616;12.872;2023-12-07T02:11:10;25.00;;;17.80;;
7683;SDS011;3884;48.616;12.872;2023-12-07T02:13:38;24.10;;;18.40;;
7683;SDS011;3884;48.616;12.872;2023-12-07T02:16:09;26.77;;;19.67;;
7683;SDS011;3884;48.616;12.872;2023-12-07T02:18:43;25.40;;;19.57;;
7683;SDS011;3884;48.616;12.872;2023-12-07T02:21:16;29.00;;;18.70;;
7683;SDS011;3884;48.616;12.872;2023-12-07T02:23:49;25.50;;;19.53;;
7683;SDS011;3884;48.616;12.872;2023-12-07T02:26:18;27.83;;;20.63;;
7683;SDS011;3884;48.616;12.872;2023-12-07T02:28:48;25.17;;;18.97;;
7683;SDS011;3884;48.616;12.872;2023-12-07T02:31:15;25.07;;;19.80;;
7683;SDS011;3884;48.616;12.872;2023-12-07T02:33:42;26.13;;;19.70;;
7683;SDS011;3884;48.616;12.872;2023-12-07T02:36:10;27.80;;;20.43;;
7683;SDS011;3884;48.616;12.872;2023-12-07T02:38:41;28.23;;;19.60;;
7683;SDS011;3884;48.616;12.872;2023-12-07T02:41:10;29.30;;;21.13;;
7683;SDS011;3884;48.616;12.872;2023-12-07T02:43:38;29.47;;;21.20;;
7683;SDS011;3884;48.616;12.872;2023-12-07T02:46:06;30.03;;;21.27;;
7683;SDS011;3884;48.616;12.872;2023-12-07T02:48:33;27.27;;;21.13;;
7683;SDS011;3884;48.616;12.872;2023-12-07T02:51:00;30.13;;;21.80;;
7683;SDS011;3884;48.616;12.872;2023-12-07T02:53:27;27.87;;;20.77;;
7683;SDS011;3884;48.616;12.872;2023-12-07T02:55:54;28.33;;;19.97;;
7683;SDS011;3884;48.616;12.872;2023-12-07T02:58:21;28.57;;;19.93;;
7683;SDS011;3884;48.616;12.872;2023-12-07T03:00:47;28.77;;;20.10;;
7683;SDS011;3884;48.616;12.872;2023-12-07T03:03:16;28.03;;;19.47;;
7683;SDS011;3884;48.616;12.872;2023-12-07T03:05:43;27.80;;;20.20;;
7683;SDS011;3884;48.616;12.872;2023-12-07T03:08:10;26.30;;;19.60;;
7683;SDS011;3884;48.616;12.872;2023-12-07T03:10:37;26.73;;;19.73;;
7683;SDS011;3884;48.616;12.872;2023-12-07T03:13:04;25.47;;;19.70;;
7683;SDS011;3884;48.616;12.872;2023-12-07T03:15:31;26.47;;;19.30;;
7683;SDS011;3884;48.616;12.872;2023-12-07T03:17:58;29.77;;;20.47;;
7683;SDS011;3884;48.616;12.872;2023-12-07T03:20:26;25.20;;;19.33;;
7683;SDS011;3884;48.616;12.872;2023-12-07T03:22:53;26.23;;;19.73;;
7683;SDS011;3884;48.616;12.872;2023-12-07T03:25:20;27.40;;;19.70;;
7683;SDS011;3884;48.616;12.872;2023-12-07T03:27:47;27.07;;;20.03;;
7683;SDS011;3884;48.616;12.872;2023-12-07T03:30:14;25.10;;;18.47;;
7683;SDS011;3884;48.616;12.872;2023-12-07T03:32:41;26.83;;;19.90;;
7683;SDS011;3884;48.616;12.872;2023-12-07T03:35:08;27.47;;;20.23;;
7683;SDS011;3884;48.616;12.872;2023-12-07T03:37:36;27.60;;;20.10;;
7683;SDS011;3884;48.616;12.872;2023-12-07T03:40:04;28.23;;;20.20;;
7683;SDS011;3884;48.616;12.872;2023-12-07T03:42:31;28.80;;;20.30;;
7683;SDS011;3884;48.616;12.872;2023-12-07T03:44:58;24.83;;;19.37;;
7683;SDS011;3884;48.616;12.872;2023-12-07T03:47:25;28.33;;;20.73;;
7683;SDS011;3884;48.616;12.872;2023-12-07T03:49:53;30.00;;;20.50;;
7683;SDS011;3884;48.616;12.872;2023-12-07T03:52:19;28.57;;;20.40;;
7683;SDS011;3884;48.616;12.872;2023-12-07T03:54:48;27.97;;;20.63;;
7683;SDS011;3884;48.616;12.872;2023-12-07T03:57:15;31.80;;;20.27;;
7683;SDS011;3884;48.616;12.872;2023-12-07T03:59:42;27.33;;;20.30;;
7683;SDS011;3884;48.616;12.872;2023-12-07T04:02:10;28.17;;;20.90;;
7683;SDS011;3884;48.616;12.872;2023-12-07T04:04:37;31.27;;;21.80;;
7683;SDS011;3884;48.616;12.872;2023-12-07T04:07:04;25.77;;;20.17;;
7683;SDS011;3884;48.616;12.872;2023-12-07T04:09:31;28.50;;;19.97;;
7683;SDS011;3884;48.616;12.872;2023-12-07T04:11:59;28.63;;;20.67;;
7683;SDS011;3884;48.616;12.872;2023-12-07T04:14:26;32.10;;;22.43;;
7683;SDS011;3884;48.616;12.872;2023-12-07T04:16:54;26.90;;;20.37;;
7683;SDS011;3884;48.616;12.872;2023-12-07T04:19:21;27.20;;;19.97;;
7683;SDS011;3884;48.616;12.872;2023-12-07T04:21:47;27.10;;;19.60;;
7683;SDS011;3884;48.616;12.872;2023-12-07T04:24:14;26.30;;;20.27;;
7683;SDS011;3884;48.616;12.872;2023-12-07T04:26:41;28.50;;;20.23;;
7683;SDS011;3884;48.616;12.872;2023-12-07T04:29:09;29.33;;;20.33;;
7683;SDS011;3884;48.616;12.872;2023-12-07T04:31:36;30.00;;;20.87;;
7683;SDS011;3884;48.616;12.872;2023-12-07T04:34:03;28.43;;;19.90;;
7683;SDS011;3884;48.616;12.872;2023-12-07T04:36:30;27.20;;;19.97;;
7683;SDS011;3884;48.616;12.872;2023-12-07T04:38:57;28.27;;;20.00;;
7683;SDS011;3884;48.616;12.872;2023-12-07T04:41:23;28.17;;;21.57;;
7683;SDS011;3884;48.616;12.872;2023-12-07T04:43:50;27.43;;;19.90;;
7683;SDS011;3884;48.616;12.872;2023-12-07T04:46:19;27.80;;;19.87;;
7683;SDS011;3884;48.616;12.872;2023-12-07T04:48:46;26.03;;;19.77;;
7683;SDS011;3884;48.616;12.872;2023-12-07T04:51:13;27.00;;;20.30;;
7683;SDS011;3884;48.616;12.872;2023-12-07T04:53:40;29.33;;;20.40;;
7683;SDS011;3884;48.616;12.872;2023-12-07T04:56:07;26.70;;;19.43;;
7683;SDS011;3884;48.616;12.872;2023-12-07T04:58:34;29.17;;;19.73;;
7683;SDS011;3884;48.616;12.872;2023-12-07T05:01:01;28.67;;;20.53;;
7683;SDS011;3884;48.616;12.872;2023-12-07T05:03:31;26.40;;;19.20;;
7683;SDS011;3884;48.616;12.872;2023-12-07T05:05:58;25.40;;;19.53;;
7683;SDS011;3884;48.616;12.872;2023-12-07T05:08:25;29.13;;;21.27;;
7683;SDS011;3884;48.616;12.872;2023-12-07T05:10:52;26.83;;;20.00;;
7683;SDS011;3884;48.616;12.872;2023-12-07T05:13:19;27.80;;;20.87;;
7683;SDS011;3884;48.616;12.872;2023-12-07T05:15:46;30.67;;;21.17;;
7683;SDS011;3884;48.616;12.872;2023-12-07T05:18:13;29.03;;;21.23;;
7683;SDS011;3884;48.616;12.872;2023-12-07T05:20:42;31.13;;;22.63;;
7683;SDS011;3884;48.616;12.872;2023-12-07T05:23:09;29.17;;;21.50;;
7683;SDS011;3884;48.616;12.872;2023-12-07T05:25:36;30.50;;;22.10;;
7683;SDS011;3884;48.616;12.872;2023-12-07T05:28:03;28.70;;;20.60;;
7683;SDS011;3884;48.616;12.872;2023-12-07T05:30:30;28.67;;;20.97;;
7683;SDS011;3884;48.616;12.872;2023-12-07T05:32:57;29.90;;;21.30;;
7683;SDS011;3884;48.616;12.872;2023-12-07T05:35:24;28.60;;;20.87;;
7683;SDS011;3884;48.616;12.872;2023-12-07T05:37:52;30.57;;;21.97;;
7683;SDS011;3884;48.616;12.872;2023-12-07T05:40:19;33.63;;;22.13;;
7683;SDS011;3884;48.616;12.872;2023-12-07T05:42:47;31.60;;;22.27;;
7683;SDS011;3884;48.616;12.872;2023-12-07T05:45:16;31.93;;;23.00;;
7683;SDS011;3884;48.616;12.872;2023-12-07T05:47:42;31.93;;;21.43;;
7683;SDS011;3884;48.616;12.872;2023-12-07T05:50:10;28.13;;;21.37;;
7683;SDS011;3884;48.616;12.872;2023-12-07T05:52:38;30.70;;;21.77;;
7683;SDS011;3884;48.616;12.872;2023-12-07T05:55:07;29.47;;;21.17;;
7683;SDS011;3884;48.616;12.872;2023-12-07T05:57:34;30.53;;;21.47;;
7683;SDS011;3884;48.616;12.872;2023-12-07T06:00:01;32.20;;;23.70;;
7683;SDS011;3884;48.616;12.872;2023-12-07T06:02:37;31.07;;;23.57;;
7683;SDS011;3884;48.616;12.872;2023-12-07T06:05:04;30.67;;;21.43;;
7683;SDS011;3884;48.616;12.872;2023-12-07T06:07:32;30.93;;;22.27;;
7683;SDS011;3884;48.616;12.872;2023-12-07T06:09:59;28.37;;;21.53;;
7683;SDS011;3884;48.616;12.872;2023-12-07T06:12:27;31.30;;;21.37;;
7683;SDS011;3884;48.616;12.872;2023-12-07T06:14:54;32.63;;;23.50;;
7683;SDS011;3884;48.616;12.872;2023-12-07T06:17:21;31.53;;;22.57;;
7683;SDS011;3884;48.616;12.872;2023-12-07T06:19:48;30.73;;;22.67;;
7683;SDS011;3884;48.616;12.872;2023-12-07T06:22:15;30.20;;;22.37;;
7683;SDS011;3884;48.616;12.872;2023-12-07T06:24:42;33.13;;;24.53;;
7683;SDS011;3884;48.616;12.872;2023-12-07T06:27:09;31.40;;;21.17;;
7683;SDS011;3884;48.616;12.872;2023-12-07T06:29:38;27.90;;;20.83;;
7683;SDS011;3884;48.616;12.872;2023-12-07T06:32:05;30.70;;;22.37;;
7683;SDS011;3884;48.616;12.872;2023-12-07T06:34:32;28.80;;;21.13;;
7683;SDS011;3884;48.616;12.872;2023-12-07T06:36:59;29.57;;;21.67;;
7683;SDS011;3884;48.616;12.872;2023-12-07T06:39:26;30.70;;;22.47;;
7683;SDS011;3884;48.616;12.872;2023-12-07T06:41:53;32.40;;;22.30;;
7683;SDS011;3884;48.616;12.872;2023-12-07T06:44:20;30.87;;;23.37;;
7683;SDS011;3884;48.616;12.872;2023-12-07T06:46:49;32.17;;;24.90;;
7683;SDS011;3884;48.616;12.872;2023-12-07T06:49:15;32.10;;;22.43;;
7683;SDS011;3884;48.616;12.872;2023-12-07T06:51:44;30.97;;;22.47;;
7683;SDS011;3884;48.616;12.872;2023-12-07T06:54:11;32.73;;;23.20;;
7683;SDS011;3884;48.616;12.872;2023-12-07T06:56:39;30.27;;;21.17;;
7683;SDS011;3884;48.616;12.872;2023-12-07T06:59:05;29.73;;;22.07;;
7683;SDS011;3884;48.616;12.872;2023-12-07T07:01:32;30.13;;;21.80;;
7683;SDS011;3884;48.616;12.872;2023-12-07T07:04:00;30.47;;;21.70;;
7683;SDS011;3884;48.616;12.872;2023-12-07T07:06:27;30.97;;;22.20;;
7683;SDS011;3884;48.616;12.872;2023-12-07T07:08:54;32.77;;;23.10;;
7683;SDS011;3884;48.616;12.872;2023-12-07T07:11:21;31.97;;;22.57;;
7683;SDS011;3884;48.616;12.872;2023-12-07T07:13:48;31.27;;;22.47;;
7683;SDS011;3884;48.616;12.872;2023-12-07T07:16:14;28.50;;;21.53;;
7683;SDS011;3884;48.616;12.872;2023-12-07T07:18:41;31.80;;;22.60;;
7683;SDS011;3884;48.616;12.872;2023-12-07T07:21:09;31.47;;;22.90;;
7683;SDS011;3884;48.616;12.872;2023-12-07T07:23:36;30.27;;;21.83;;
7683;SDS011;3884;48.616;12.872;2023-12-07T07:26:03;28.33;;;21.90;;
7683;SDS011;3884;48.616;12.872;2023-12-07T07:28:31;31.10;;;22.03;;
7683;SDS011;3884;48.616;12.872;2023-12-07T07:30:57;32.13;;;22.60;;
7683;SDS011;3884;48.616;12.872;2023-12-07T07:33:24;32.60;;;23.17;;
7683;SDS011;3884;48.616;12.872;2023-12-07T07:35:51;30.50;;;21.33;;
7683;SDS011;3884;48.616;12.872;2023-12-07T07:38:19;34.70;;;24.00;;
7683;SDS011;3884;48.616;12.872;2023-12-07T07:40:46;30.03;;;22.67;;
7683;SDS011;3884;48.616;12.872;2023-12-07T07:43:14;34.87;;;23.50;;
7683;SDS011;3884;48.616;12.872;2023-12-07T07:45:40;35.00;;;25.03;;
7683;SDS011;3884;48.616;12.872;2023-12-07T07:48:07;33.53;;;24.10;;
7683;SDS011;3884;48.616;12.872;2023-12-07T07:50:34;31.80;;;24.03;;
7683;SDS011;3884;48.616;12.872;2023-12-07T07:53:01;31.43;;;23.03;;
7683;SDS011;3884;48.616;12.872;2023-12-07T07:55:30;31.43;;;23.73;;
7683;SDS011;3884;48.616;12.872;2023-12-07T07:57:57;34.70;;;23.03;;
7683;SDS011;3884;48.616;12.872;2023-12-07T08:00:24;32.70;;;23.37;;
7683;SDS011;3884;48.616;12.872;2023-12-07T08:02:53;33.23;;;24.50;;
7683;SDS011;3884;48.616;12.872;2023-12-07T08:05:20;35.20;;;24.67;;
7683;SDS011;3884;48.616;12.872;2023-12-07T08:07:46;31.80;;;22.87;;
7683;SDS011;3884;48.616;12.872;2023-12-07T08:10:13;30.93;;;22.60;;
7683;SDS011;3884;48.616;12.872;2023-12-07T08:12:41;30.40;;;22.40;;
7683;SDS011;3884;48.616;12.872;2023-12-07T08:15:09;33.03;;;23.50;;
7683;SDS011;3884;48.616;12.872;2023-12-07T08:17:37;32.53;;;22.70;;
7683;SDS011;3884;48.616;12.872;2023-12-07T08:20:06;33.10;;;22.17;;
7683;SDS011;3884;48.616;12.872;2023-12-07T08:22:34;31.50;;;22.43;;
7683;SDS011;3884;48.616;12.872;2023-12-07T08:25:01;33.53;;;23.63;;
7683;SDS011;3884;48.616;12.872;2023-12-07T08:27:30;28.90;;;21.80;;
7683;SDS011;3884;48.616;12.872;2023-12-07T08:29:59;30.03;;;22.33;;
7683;SDS011;3884;48.616;12.872;2023-12-07T08:32:26;29.97;;;22.23;;
7683;SDS011;3884;48.616;12.872;2023-12-07T08:34:54;30.37;;;22.03;;
7683;SDS011;3884;48.616;12.872;2023-12-07T08:37:21;30.40;;;21.77;;
7683;SDS011;3884;48.616;12.872;2023-12-07T08:39:48;34.23;;;24.77;;
7683;SDS011;3884;48.616;12.872;2023-12-07T08:42:15;37.50;;;27.80;;
7683;SDS011;3884;48.616;12.872;2023-12-07T08:44:42;34.10;;;23.13;;
7683;SDS011;3884;48.616;12.872;2023-12-07T08:47:11;32.13;;;22.90;;
7683;SDS011;3884;48.616;12.872;2023-12-07T08:49:39;30.73;;;22.37;;
7683;SDS011;3884;48.616;12.872;2023-12-07T08:52:05;27.10;;;20.33;;
7683;SDS011;3884;48.616;12.872;2023-12-07T08:54:32;29.00;;;22.13;;
7683;SDS011;3884;48.616;12.872;2023-12-07T08:57:01;30.30;;;22.87;;
7683;SDS011;3884;48.616;12.872;2023-12-07T08:59:28;27.57;;;21.03;;
7683;SDS011;3884;48.616;12.872;2023-12-07T09:01:55;28.50;;;21.53;;
7683;SDS011;3884;48.616;12.872;2023-12-07T09:04:23;30.73;;;23.67;;
7683;SDS011;3884;48.616;12.872;2023-12-07T09:06:50;27.60;;;21.23;;
7683;SDS011;3884;48.616;12.872;2023-12-07T09:09:17;29.40;;;21.73;;
7683;SDS011;3884;48.616;12.872;2023-12-07T09:11:44;29.57;;;21.87;;
7683;SDS011;3884;48.616;12.872;2023-12-07T09:14:10;27.70;;;20.53;;
7683;SDS011;3884;48.616;12.872;2023-12-07T09:16:42;31.17;;;22.23;;
7683;SDS011;3884;48.616;12.872;2023-12-07T09:19:09;29.60;;;21.87;;
7683;SDS011;3884;48.616;12.872;2023-12-07T09:21:38;28.70;;;21.10;;
7683;SDS011;3884;48.616;12.872;2023-12-07T09:24:05;29.30;;;21.97;;
7683;SDS011;3884;48.616;12.872;2023-12-07T09:26:33;27.83;;;21.03;;
7683;SDS011;3884;48.616;12.872;2023-12-07T09:29:00;28.67;;;20.00;;
7683;SDS011;3884;48.616;12.872;2023-12-07T09:31:27;29.83;;;21.17;;
7683;SDS011;3884;48.616;12.872;2023-12-07T09:33:54;28.60;;;20.97;;
7683;SDS011;3884;48.616;12.872;2023-12-07T09:36:21;29.47;;;20.10;;
7683;SDS011;3884;48.616;12.872;2023-12-07T09:38:50;27.17;;;20.17;;
7683;SDS011;3884;48.616;12.872;2023-12-07T09:41:17;26.57;;;20.37;;
7683;SDS011;3884;48.616;12.872;2023-12-07T09:43:45;32.20;;;22.00;;
7683;SDS011;3884;48.616;12.872;2023-12-07T09:46:12;28.90;;;21.07;;
7683;SDS011;3884;48.616;12.872;2023-12-07T09:48:40;28.33;;;20.33;;
7683;SDS011;3884;48.616;12.872;2023-12-07T09:51:09;27.80;;;20.57;;
7683;SDS011;3884;48.616;12.872;2023-12-07T09:53:36;27.43;;;20.10;;
7683;SDS011;3884;48.616;12.872;2023-12-07T09:56:06;25.23;;;19.27;;
7683;SDS011;3884;48.616;12.872;2023-12-07T09:58:34;30.90;;;22.13;;
7683;SDS011;3884;48.616;12.872;2023-12-07T10:01:01;26.73;;;19.77;;
7683;SDS011;3884;48.616;12.872;2023-12-07T10:03:28;27.40;;;21.13;;
7683;SDS011;3884;48.616;12.872;2023-12-07T10:05:56;27.30;;;20.40;;
7683;SDS011;3884;48.616;12.872;2023-12-07T10:08:25;25.27;;;19.73;;
7683;SDS011;3884;48.616;12.872;2023-12-07T10:11:01;38.20;;;29.50;;
7683;SDS011;3884;48.616;12.872;2023-12-07T10:13:31;28.20;;;20.23;;
7683;SDS011;3884;48.616;12.872;2023-12-07T10:16:05;23.80;;;19.07;;
7683;SDS011;3884;48.616;12.872;2023-12-07T10:18:34;28.47;;;20.80;;
7683;SDS011;3884;48.616;12.872;2023-12-07T10:21:01;26.57;;;20.43;;
7683;SDS011;3884;48.616;12.872;2023-12-07T10:23:28;23.70;;;18.30;;
7683;SDS011;3884;48.616;12.872;2023-12-07T10:25:57;24.03;;;18.90;;
7683;SDS011;3884;48.616;12.872;2023-12-07T10:28:25;33.30;;;25.23;;
7683;SDS011;3884;48.616;12.872;2023-12-07T10:30:54;24.30;;;19.07;;
7683;SDS011;3884;48.616;12.872;2023-12-07T10:33:20;27.10;;;20.03;;
7683;SDS011;3884;48.616;12.872;2023-12-07T10:35:47;27.83;;;20.10;;
7683;SDS011;3884;48.616;12.872;2023-12-07T10:38:15;27.57;;;19.87;;
7683;SDS011;3884;48.616;12.872;2023-12-07T10:40:44;26.83;;;19.43;;
7683;SDS011;3884;48.616;12.872;2023-12-07T10:43:11;31.97;;;22.03;;
7683;SDS011;3884;48.616;12.872;2023-12-07T10:45:40;27.80;;;20.27;;
7683;SDS011;3884;48.616;12.872;2023-12-07T10:48:11;27.93;;;22.37;;
7683;SDS011;3884;48.616;12.872;2023-12-07T10:50:37;26.70;;;19.97;;
7683;SDS011;3884;48.616;12.872;2023-12-07T10:53:09;25.83;;;20.00;;
7683;SDS011;3884;48.616;12.872;2023-12-07T10:55:41;29.40;;;21.53;;
7683;SDS011;3884;48.616;12.872;2023-12-07T10:58:13;27.90;;;20.43;;
7683;SDS011;3884;48.616;12.872;2023-12-07T11:00:41;28.23;;;20.80;;
7683;SDS011;3884;48.616;12.872;2023-12-07T11:03:14;29.10;;;22.80;;
7683;SDS011;3884;48.616;12.872;2023-12-07T11:05:42;35.47;;;25.93;;
7683;SDS011;3884;48.616;12.872;2023-12-07T11:08:13;48.80;;;34.83;;
7683;SDS011;3884;48.616;12.872;2023-12-07T11:10:48;32.13;;;22.53;;
7683;SDS011;3884;48.616;12.872;2023-12-07T11:13:24;30.33;;;22.87;;
7683;SDS011;3884;48.616;12.872;2023-12-07T11:15:55;35.93;;;27.30;;
7683;SDS011;3884;48.616;12.872;2023-12-07T11:18:25;40.03;;;29.80;;
7683;SDS011;3884;48.616;12.872;2023-12-07T11:20:52;29.43;;;21.57;;
7683;SDS011;3884;48.616;12.872;2023-12-07T11:23:20;31.00;;;22.80;;
7683;SDS011;3884;48.616;12.872;2023-12-07T11:25:48;27.13;;;21.40;;
7683;SDS011;3884;48.616;12.872;2023-12-07T11:28:16;32.07;;;22.07;;
7683;SDS011;3884;48.616;12.872;2023-12-07T11:30:44;30.20;;;21.77;;
7683;SDS011;3884;48.616;12.872;2023-12-07T11:33:12;29.03;;;23.20;;
7683;SDS011;3884;48.616;12.872;2023-12-07T11:38:32;32.10;;;23.13;;
7683;SDS011;3884;48.616;12.872;2023-12-07T11:40:59;31.40;;;23.20;;
7683;SDS011;3884;48.616;12.872;2023-12-07T11:46:12;35.33;;;27.10;;
7683;SDS011;3884;48.616;12.872;2023-12-07T11:48:45;33.13;;;25.07;;
7683;SDS011;3884;48.616;12.872;2023-12-07T11:51:16;34.63;;;24.33;;
7683;SDS011;3884;48.616;12.872;2023-12-07T11:53:43;28.20;;;20.27;;
7683;SDS011;3884;48.616;12.872;2023-12-07T11:56:11;26.63;;;20.73;;
7683;SDS011;3884;48.616;12.872;2023-12-07T11:58:38;33.63;;;23.17;;
7683;SDS011;3884;48.616;12.872;2023-12-07T12:01:06;29.83;;;22.17;;
7683;SDS011;3884;48.616;12.872;2023-12-07T12:03:33;28.77;;;22.23;;
7683;SDS011;3884;48.616;12.872;2023-12-07T12:06:02;31.90;;;23.07;;
7683;SDS011;3884;48.616;12.872;2023-12-07T12:08:32;29.83;;;22.40;;
7683;SDS011;3884;48.616;12.872;2023-12-07T12:10:59;30.37;;;23.40;;
7683;SDS011;3884;48.616;12.872;2023-12-07T12:13:26;29.40;;;22.77;;
7683;SDS011;3884;48.616;12.872;2023-12-07T12:15:54;30.30;;;22.07;;
7683;SDS011;3884;48.616;12.872;2023-12-07T12:18:22;28.13;;;21.57;;
7683;SDS011;3884;48.616;12.872;2023-12-07T12:20:50;27.47;;;21.57;;
7683;SDS011;3884;48.616;12.872;2023-12-07T12:23:18;28.73;;;21.87;;
7683;SDS011;3884;48.616;12.872;2023-12-07T12:25:46;31.53;;;22.63;;
7683;SDS011;3884;48.616;12.872;2023-12-07T12:28:15;30.17;;;23.37;;
7683;SDS011;3884;48.616;12.872;2023-12-07T12:30:44;30.63;;;22.47;;
7683;SDS011;3884;48.616;12.872;2023-12-07T12:33:12;28.97;;;21.40;;
7683;SDS011;3884;48.616;12.872;2023-12-07T12:35:39;32.17;;;22.07;;
7683;SDS011;3884;48.616;12.872;2023-12-07T12:38:08;28.73;;;21.30;;
7683;SDS011;3884;48.616;12.872;2023-12-07T12:40:35;25.73;;;19.70;;
7683;SDS011;3884;48.616;12.872;2023-12-07T12:43:03;27.00;;;20.23;;
7683;SDS011;3884;48.616;12.872;2023-12-07T12:45:32;28.07;;;20.90;;
7683;SDS011;3884;48.616;12.872;2023-12-07T12:47:59;35.80;;;23.60;;
7683;SDS011;3884;48.616;12.872;2023-12-07T12:50:33;31.87;;;23.00;;
7683;SDS011;3884;48.616;12.872;2023-12-07T12:53:03;33.13;;;23.27;;
7683;SDS011;3884;48.616;12.872;2023-12-07T12:55:32;27.67;;;22.20;;
7683;SDS011;3884;48.616;12.872;2023-12-07T12:58:00;32.77;;;22.10;;
7683;SDS011;3884;48.616;12.872;2023-12-07T13:00:30;33.80;;;23.37;;
7683;SDS011;3884;48.616;12.872;2023-12-07T13:02:58;32.37;;;24.77;;
7683;SDS011;3884;48.616;12.872;2023-12-07T13:05:25;36.10;;;26.00;;
7683;SDS011;3884;48.616;12.872;2023-12-07T13:07:52;35.70;;;24.63;;
7683;SDS011;3884;48.616;12.872;2023-12-07T13:10:19;35.37;;;25.57;;
7683;SDS011;3884;48.616;12.872;2023-12-07T13:12:52;44.07;;;29.70;;
7683;SDS011;3884;48.616;12.872;2023-12-07T13:15:20;39.20;;;27.53;;
7683;SDS011;3884;48.616;12.872;2023-12-07T13:17:49;33.30;;;25.17;;
7683;SDS011;3884;48.616;12.872;2023-12-07T13:20:16;35.13;;;25.10;;
7683;SDS011;3884;48.616;12.872;2023-12-07T13:22:42;35.27;;;24.13;;
7683;SDS011;3884;48.616;12.872;2023-12-07T13:25:09;30.63;;;23.87;;
7683;SDS011;3884;48.616;12.872;2023-12-07T13:27:37;33.70;;;24.60;;
7683;SDS011;3884;48.616;12.872;2023-12-07T13:30:04;33.70;;;25.00;;
7683;SDS011;3884;48.616;12.872;2023-12-07T13:32:32;37.17;;;25.80;;
7683;SDS011;3884;48.616;12.872;2023-12-07T13:35:03;33.77;;;24.20;;
7683;SDS011;3884;48.616;12.872;2023-12-07T13:37:30;32.83;;;24.07;;
7683;SDS011;3884;48.616;12.872;2023-12-07T13:39:58;28.37;;;21.47;;
7683;SDS011;3884;48.616;12.872;2023-12-07T13:42:25;30.50;;;22.50;;
7683;SDS011;3884;48.616;12.872;2023-12-07T13:44:53;31.37;;;22.70;;
7683;SDS011;3884;48.616;12.872;2023-12-07T13:47:22;32.93;;;23.40;;
7683;SDS011;3884;48.616;12.872;2023-12-07T13:49:53;30.27;;;24.03;;
7683;SDS011;3884;48.616;12.872;2023-12-07T13:52:23;32.87;;;24.37;;
7683;SDS011;3884;48.616;12.872;2023-12-07T13:54:50;31.93;;;24.63;;
7683;SDS011;3884;48.616;12.872;2023-12-07T13:57:17;34.93;;;25.70;;
7683;SDS011;3884;48.616;12.872;2023-12-07T13:59:45;34.50;;;26.13;;
7683;SDS011;3884;48.616;12.872;2023-12-07T14:02:11;34.83;;;26.37;;
7683;SDS011;3884;48.616;12.872;2023-12-07T14:04:38;39.73;;;26.87;;
7683;SDS011;3884;48.616;12.872;2023-12-07T14:07:09;38.70;;;27.03;;
7683;SDS011;3884;48.616;12.872;2023-12-07T14:09:39;40.27;;;28.30;;
7683;SDS011;3884;48.616;12.872;2023-12-07T14:12:08;40.37;;;27.97;;
7683;SDS011;3884;48.616;12.872;2023-12-07T14:14:38;38.23;;;26.37;;
7683;SDS011;3884;48.616;12.872;2023-12-07T14:17:04;35.17;;;26.63;;
7683;SDS011;3884;48.616;12.872;2023-12-07T14:19:31;40.00;;;27.13;;
7683;SDS011;3884;48.616;12.872;2023-12-07T14:22:00;38.33;;;27.23;;
7683;SDS011;3884;48.616;12.872;2023-12-07T14:24:27;39.50;;;28.63;;
7683;SDS011;3884;48.616;12.872;2023-12-07T14:26:57;43.83;;;30.80;;
7683;SDS011;3884;48.616;12.872;2023-12-07T14:29:24;42.03;;;30.03;;
7683;SDS011;3884;48.616;12.872;2023-12-07T14:31:51;46.43;;;31.73;;
7683;SDS011;3884;48.616;12.872;2023-12-07T14:34:18;51.57;;;33.43;;
7683;SDS011;3884;48.616;12.872;2023-12-07T14:36:45;50.03;;;33.23;;
7683;SDS011;3884;48.616;12.872;2023-12-07T14:39:12;45.40;;;32.83;;
7683;SDS011;3884;48.616;12.872;2023-12-07T14:41:42;48.80;;;32.87;;